Time;durP1;ratioP1;P1;durP2;ratioP2;P2;SDS_P1;SDS_P2;PMS_P1;PMS_P2;Temp;Humidity;BMP_temperature;BMP_pressure;BME280_temperature;BME280_humidity;BME280_pressure;Samples;Min_cycle;Max_cycle;Signal;HPM_P1;HPM_P2
2023/11/18 00:01:22;;;;;;;9.13;6.13;;;-0.20;99.90;;;;;;5049651;28;20028;-77
2023/11/18 00:03:47;;;;;;;9.00;6.07;;;-0.10;99.90;;;;;;5044159;28;20055;-77
2023/11/18 00:06:13;;;;;;;10.88;6.60;;;-0.20;99.90;;;;;;5045869;28;20037;-77
2023/11/18 00:08:39;;;;;;;8.88;5.32;;;-0.20;99.90;;;;;;5041777;28;20037;-78
2023/11/18 00:11:05;;;;;;;7.53;5.53;;;-0.20;99.90;;;;;;5052105;28;20514;-77
2023/11/18 00:13:31;;;;;;;8.68;4.85;;;-0.20;99.90;;;;;;5060087;28;20024;-78
2023/11/18 00:15:57;;;;;;;6.13;4.35;;;-0.20;99.90;;;;;;5053317;28;20047;-77
2023/11/18 00:18:23;;;;;;;6.95;4.10;;;-0.20;99.90;;;;;;5056090;28;20618;-77
2023/11/18 00:20:50;;;;;;;6.40;4.13;;;-0.20;99.90;;;;;;5055641;28;20497;-78
2023/11/18 00:23:17;;;;;;;6.30;3.95;;;-0.20;99.90;;;;;;5051123;28;20037;-77
2023/11/18 00:25:45;;;;;;;7.28;4.78;;;-0.20;99.90;;;;;;5050472;28;20560;-78
2023/11/18 00:28:11;;;;;;;5.82;3.75;;;-0.20;99.90;;;;;;5053990;28;20036;-77
2023/11/18 00:30:38;;;;;;;6.28;3.80;;;-0.20;99.90;;;;;;5054288;28;20028;-77
2023/11/18 00:33:05;;;;;;;7.88;4.35;;;-0.20;99.90;;;;;;5048803;28;20040;-76
2023/11/18 00:35:31;;;;;;;8.02;4.50;;;-0.30;99.90;;;;;;5038296;28;20037;-78
2023/11/18 00:38:00;;;;;;;6.28;4.20;;;-0.30;99.90;;;;;;5054311;28;20033;-77
2023/11/18 00:40:29;;;;;;;6.53;3.90;;;-0.30;99.90;;;;;;5048241;28;20541;-77
2023/11/18 00:42:56;;;;;;;4.97;3.63;;;-0.30;99.90;;;;;;5040991;28;20025;-79
2023/11/18 00:45:22;;;;;;;4.97;3.80;;;-0.40;99.90;;;;;;5042298;28;20033;-77
2023/11/18 00:47:48;;;;;;;5.05;4.18;;;-0.40;99.90;;;;;;5041724;28;20029;-77
2023/11/18 00:50:14;;;;;;;5.30;4.10;;;-0.40;99.90;;;;;;5041360;28;20029;-77
2023/11/18 00:52:43;;;;;;;6.05;4.20;;;-0.50;99.90;;;;;;5040019;28;20088;-77
2023/11/18 00:55:10;;;;;;;5.32;4.03;;;-0.50;99.90;;;;;;5040143;28;20025;-77
2023/11/18 00:57:40;;;;;;;4.95;4.00;;;-0.50;99.90;;;;;;5036807;28;20449;-77
2023/11/18 01:00:13;;;;;;;6.20;4.50;;;-0.50;99.90;;;;;;5042827;28;20114;-77
2023/11/18 01:02:40;;;;;;;5.75;4.28;;;-0.50;99.90;;;;;;5030596;28;20082;-77
2023/11/18 01:05:09;;;;;;;6.50;4.32;;;-0.60;99.90;;;;;;5048316;28;20036;-78
2023/11/18 01:07:35;;;;;;;5.80;4.65;;;-0.70;99.90;;;;;;5049578;28;20469;-77
2023/11/18 01:10:02;;;;;;;7.45;5.03;;;-0.80;99.90;;;;;;5050601;28;20402;-77
2023/11/18 01:12:28;;;;;;;7.50;4.38;;;-0.80;99.90;;;;;;5052723;28;20423;-78
2023/11/18 01:14:53;;;;;;;6.45;4.80;;;-0.80;99.90;;;;;;5026338;28;20042;-77
2023/11/18 01:17:22;;;;;;;7.93;4.60;;;-0.90;99.90;;;;;;5047628;28;20041;-77
2023/11/18 01:19:47;;;;;;;6.32;4.65;;;-0.90;99.90;;;;;;5043501;28;20037;-77
2023/11/18 01:22:13;;;;;;;6.40;4.55;;;-0.90;99.90;;;;;;5044351;28;20056;-77
2023/11/18 01:24:39;;;;;;;6.38;5.00;;;-0.90;99.90;;;;;;5053146;28;20056;-77
2023/11/18 01:27:09;;;;;;;7.55;4.38;;;-0.90;99.90;;;;;;5031890;28;20041;-77
2023/11/18 01:29:36;;;;;;;6.55;4.68;;;-0.90;99.90;;;;;;5041973;28;20037;-77
2023/11/18 01:32:08;;;;;;;9.10;4.97;;;-1.00;99.90;;;;;;5051306;28;20029;-77
2023/11/18 01:34:39;;;;;;;6.88;4.88;;;-1.00;99.90;;;;;;5040907;28;20029;-77
2023/11/18 01:37:07;;;;;;;7.43;4.82;;;-1.00;99.90;;;;;;5048137;28;20430;-78
2023/11/18 01:39:34;;;;;;;9.88;4.38;;;-1.00;99.90;;;;;;5039001;28;20032;-78
2023/11/18 01:42:00;;;;;;;6.35;4.53;;;-1.00;99.90;;;;;;5040509;28;20037;-77
2023/11/18 01:44:30;;;;;;;7.78;5.35;;;-1.00;99.90;;;;;;5049343;28;20058;-76
2023/11/18 01:47:03;;;;;;;6.70;5.20;;;-1.00;99.90;;;;;;5052240;28;20631;-77
2023/11/18 01:49:29;;;;;;;8.73;4.97;;;-1.00;99.90;;;;;;5045181;28;20466;-76
2023/11/18 01:51:56;;;;;;;6.50;4.65;;;-0.90;99.90;;;;;;5049952;28;20033;-77
2023/11/18 01:54:23;;;;;;;5.68;4.57;;;-1.00;99.90;;;;;;5055158;28;20033;-77
2023/11/18 01:56:52;;;;;;;6.32;4.22;;;-1.00;99.90;;;;;;5045302;28;20031;-77
2023/11/18 01:59:18;;;;;;;6.82;4.80;;;-1.00;99.90;;;;;;5045260;28;20021;-77
2023/11/18 02:01:51;;;;;;;7.05;5.05;;;-1.00;99.90;;;;;;5035723;28;20036;-77
2023/11/18 02:04:19;;;;;;;7.50;4.88;;;-1.10;99.90;;;;;;5034489;28;20074;-77
2023/11/18 02:06:47;;;;;;;7.03;4.35;;;-1.10;99.90;;;;;;5028032;28;20146;-77
2023/11/18 02:09:17;;;;;;;6.28;4.28;;;-1.10;99.90;;;;;;5049256;28;20115;-77
2023/11/18 02:11:51;;;;;;;8.40;5.25;;;-1.10;99.90;;;;;;5046709;28;20029;-77
2023/11/18 02:14:20;;;;;;;7.75;5.18;;;-1.10;99.90;;;;;;5046984;28;20052;-79
2023/11/18 02:16:49;;;;;;;6.68;4.25;;;-1.10;99.90;;;;;;5056128;28;20053;-78
2023/11/18 02:19:21;;;;;;;8.95;4.60;;;-1.10;99.90;;;;;;5046986;28;20380;-79
2023/11/18 02:21:49;;;;;;;6.50;4.82;;;-1.10;99.90;;;;;;5051432;28;20044;-79
2023/11/18 02:24:33;;;;;;;5.95;4.60;;;-1.10;99.90;;;;;;5049732;28;20034;-79
2023/11/18 02:27:00;;;;;;;8.05;5.18;;;-1.10;99.90;;;;;;5057459;28;20033;-78
2023/11/18 02:29:35;;;;;;;8.43;4.85;;;-1.10;99.90;;;;;;5039272;28;20121;-79
2023/11/18 02:32:10;;;;;;;6.43;4.68;;;-1.10;99.90;;;;;;5043968;28;20035;-78
2023/11/18 02:34:40;;;;;;;6.53;4.47;;;-1.10;99.90;;;;;;5046438;28;20502;-79
2023/11/18 02:37:07;;;;;;;11.73;4.70;;;-1.10;99.90;;;;;;5058452;28;20040;-79
2023/11/18 02:39:40;;;;;;;6.63;3.95;;;-1.20;99.90;;;;;;5044210;28;20021;-78
2023/11/18 02:42:10;;;;;;;6.05;4.10;;;-1.10;99.90;;;;;;5051825;28;20039;-79
2023/11/18 02:44:38;;;;;;;7.70;4.00;;;-1.20;99.90;;;;;;5055727;28;20056;-78
2023/11/18 02:47:07;;;;;;;6.03;4.10;;;-1.20;99.90;;;;;;5050665;28;20040;-78
2023/11/18 02:49:36;;;;;;;5.75;4.38;;;-1.20;99.90;;;;;;5053511;28;20060;-78
2023/11/18 02:52:02;;;;;;;5.18;3.65;;;-1.20;99.90;;;;;;5054352;28;20070;-78
2023/11/18 02:54:28;;;;;;;5.45;3.90;;;-1.20;99.90;;;;;;5063408;28;20508;-78
2023/11/18 02:56:54;;;;;;;7.85;4.53;;;-1.20;99.90;;;;;;5047924;28;20048;-78
2023/11/18 02:59:21;;;;;;;8.18;3.95;;;-1.20;99.90;;;;;;5044545;28;20086;-77
2023/11/18 03:01:47;;;;;;;5.75;4.20;;;-1.20;99.90;;;;;;5048970;28;20045;-78
2023/11/18 03:04:14;;;;;;;7.05;4.07;;;-1.20;99.90;;;;;;5053708;28;20068;-77
2023/11/18 03:06:41;;;;;;;5.65;4.05;;;-1.20;99.90;;;;;;5054117;28;20083;-78
2023/11/18 03:09:07;;;;;;;5.82;4.30;;;-1.20;99.90;;;;;;5057032;28;20033;-78
2023/11/18 03:11:34;;;;;;;6.25;4.18;;;-1.30;99.90;;;;;;5048393;28;20120;-77
2023/11/18 03:14:00;;;;;;;6.63;3.95;;;-1.30;99.90;;;;;;5051086;28;20047;-77
2023/11/18 03:16:26;;;;;;;5.85;3.85;;;-1.30;99.90;;;;;;5064924;28;20395;-77
2023/11/18 03:18:52;;;;;;;8.57;5.10;;;-1.30;99.90;;;;;;5053818;28;20029;-77
2023/11/18 03:21:19;;;;;;;12.30;6.47;;;-1.30;99.90;;;;;;5051553;28;20035;-77
2023/11/18 03:23:45;;;;;;;8.10;4.82;;;-1.30;99.90;;;;;;5051103;28;20025;-77
2023/11/18 03:26:11;;;;;;;9.02;5.20;;;-1.30;99.90;;;;;;5039067;28;20036;-77
2023/11/18 03:28:37;;;;;;;8.07;5.60;;;-1.40;99.90;;;;;;5050281;28;20025;-78
2023/11/18 03:31:04;;;;;;;8.65;5.13;;;-1.40;99.90;;;;;;5049392;28;20055;-77
2023/11/18 03:33:31;;;;;;;5.88;4.25;;;-1.40;99.90;;;;;;5036144;28;20029;-76
2023/11/18 03:35:56;;;;;;;5.50;4.20;;;-1.40;99.90;;;;;;5051281;28;20035;-77
2023/11/18 03:38:23;;;;;;;5.60;4.13;;;-1.50;99.90;;;;;;5044624;28;20112;-77
2023/11/18 03:40:49;;;;;;;6.13;4.32;;;-1.50;99.90;;;;;;5052426;28;20435;-78
2023/11/18 03:43:15;;;;;;;6.50;4.30;;;-1.50;99.90;;;;;;5052657;28;20025;-78
2023/11/18 03:45:41;;;;;;;7.35;4.47;;;-1.50;99.90;;;;;;5051096;28;20068;-77
2023/11/18 03:48:07;;;;;;;6.00;4.15;;;-1.50;99.90;;;;;;5039524;28;20032;-77
2023/11/18 03:50:36;;;;;;;6.07;4.40;;;-1.60;99.90;;;;;;5047317;28;20025;-77
2023/11/18 03:53:03;;;;;;;5.35;3.95;;;-1.50;99.90;;;;;;5050517;28;20112;-77
2023/11/18 03:55:29;;;;;;;5.15;4.00;;;-1.60;99.90;;;;;;5051729;28;20033;-78
2023/11/18 03:57:56;;;;;;;5.13;3.67;;;-1.60;99.90;;;;;;5045077;28;20065;-77
2023/11/18 04:00:29;;;;;;;5.15;3.85;;;-1.50;99.90;;;;;;5045261;28;20047;-77
2023/11/18 04:02:58;;;;;;;7.05;4.18;;;-1.50;99.90;;;;;;5049238;28;20041;-77
2023/11/18 04:05:23;;;;;;;4.90;4.00;;;-1.50;99.90;;;;;;5056997;28;20085;-77
2023/11/18 04:07:49;;;;;;;4.45;3.78;;;-1.50;99.90;;;;;;5052828;28;20116;-77
2023/11/18 04:10:17;;;;;;;5.60;3.78;;;-1.50;99.90;;;;;;5050996;28;20505;-77
2023/11/18 04:12:46;;;;;;;5.75;3.30;;;-1.50;99.90;;;;;;5053566;28;20044;-77
2023/11/18 04:15:13;;;;;;;4.72;3.50;;;-1.50;99.90;;;;;;5055696;28;20398;-77
2023/11/18 04:17:39;;;;;;;6.40;3.53;;;-1.50;99.90;;;;;;5049997;28;20554;-77
2023/11/18 04:20:10;;;;;;;4.93;3.63;;;-1.50;99.90;;;;;;5057953;28;20083;-76
2023/11/18 04:22:43;;;;;;;5.30;3.58;;;-1.50;99.90;;;;;;5054214;28;20033;-77
2023/11/18 04:25:10;;;;;;;5.68;3.97;;;-1.50;99.90;;;;;;5054950;28;20115;-78
2023/11/18 04:27:37;;;;;;;4.93;3.95;;;-1.60;99.90;;;;;;5045495;28;20037;-77
2023/11/18 04:30:04;;;;;;;5.82;4.00;;;-1.60;99.90;;;;;;5053456;28;20336;-76
2023/11/18 04:32:32;;;;;;;6.65;4.15;;;-1.60;99.90;;;;;;5055907;28;20037;-77
2023/11/18 04:34:59;;;;;;;6.80;4.00;;;-1.70;99.90;;;;;;5051025;28;20048;-77
2023/11/18 04:37:26;;;;;;;4.10;3.60;;;-1.70;99.90;;;;;;5051544;28;20029;-77
2023/11/18 04:39:53;;;;;;;6.60;4.25;;;-1.70;99.90;;;;;;5043870;28;20693;-78
2023/11/18 04:42:19;;;;;;;5.53;3.95;;;-1.70;99.90;;;;;;5051580;28;20032;-77
2023/11/18 04:44:45;;;;;;;7.72;4.35;;;-1.70;99.90;;;;;;5042026;28;20035;-77
2023/11/18 04:47:11;;;;;;;5.20;3.88;;;-1.70;99.90;;;;;;5055099;28;20502;-77
2023/11/18 04:49:36;;;;;;;7.93;3.85;;;-1.70;99.90;;;;;;5043864;28;20033;-77
2023/11/18 04:52:02;;;;;;;5.35;3.58;;;-1.70;99.90;;;;;;5046179;28;20033;-76
2023/11/18 04:54:29;;;;;;;6.60;3.67;;;-1.70;99.90;;;;;;5050904;28;20024;-77
2023/11/18 04:56:55;;;;;;;6.32;3.53;;;-1.70;99.90;;;;;;5042666;28;20080;-77
2023/11/18 04:59:21;;;;;;;4.78;3.45;;;-1.80;99.90;;;;;;5041581;28;20028;-77
2023/11/18 05:02:06;;;;;;;5.00;3.38;;;-1.80;99.90;;;;;;5046065;28;20124;-76
2023/11/18 05:04:31;;;;;;;4.45;3.55;;;-1.80;99.90;;;;;;5049175;28;20045;-77
2023/11/18 05:06:57;;;;;;;4.93;4.00;;;-1.80;99.90;;;;;;5049143;28;20049;-77
2023/11/18 05:09:24;;;;;;;5.63;3.70;;;-1.80;99.90;;;;;;5044207;28;20038;-77
2023/11/18 05:11:49;;;;;;;6.38;3.83;;;-1.80;99.90;;;;;;5041704;28;20045;-77
2023/11/18 05:14:16;;;;;;;6.00;4.20;;;-1.90;99.90;;;;;;5056961;28;20029;-77
2023/11/18 05:16:42;;;;;;;5.13;3.50;;;-1.90;99.90;;;;;;5048831;28;20491;-77
2023/11/18 05:19:08;;;;;;;4.78;3.50;;;-1.90;99.90;;;;;;5041878;28;20082;-77
2023/11/18 05:21:34;;;;;;;6.15;3.83;;;-1.90;99.90;;;;;;5045903;28;20033;-76
2023/11/18 05:23:59;;;;;;;5.40;3.58;;;-1.90;99.90;;;;;;5047865;28;20049;-77
2023/11/18 05:26:26;;;;;;;5.95;3.80;;;-1.90;99.90;;;;;;5047127;28;20025;-76
2023/11/18 05:28:54;;;;;;;5.38;3.85;;;-1.90;99.90;;;;;;5046939;28;20047;-77
2023/11/18 05:31:19;;;;;;;8.35;3.78;;;-1.90;99.90;;;;;;5050256;28;20851;-77
2023/11/18 05:33:51;;;;;;;6.28;4.10;;;-1.90;99.90;;;;;;5046548;28;20036;-77
2023/11/18 05:36:26;;;;;;;5.07;3.50;;;-1.90;99.90;;;;;;5050517;28;20036;-77
2023/11/18 05:38:52;;;;;;;;;;;-1.90;99.90;;;;;;5039769;28;20033;-77
2023/11/18 05:41:27;;;;;;;6.03;4.20;;;-1.90;99.90;;;;;;5047958;28;19909;-78
2023/11/18 05:43:56;;;;;;;5.60;4.07;;;-1.90;99.90;;;;;;5036985;28;20088;-77
2023/11/18 05:46:29;;;;;;;5.05;4.30;;;-1.90;99.90;;;;;;5049340;28;20059;-77
2023/11/18 05:48:55;;;;;;;8.65;6.05;;;-1.90;99.90;;;;;;5049956;28;20033;-77
2023/11/18 05:51:29;;;;;;;9.07;6.25;;;-1.90;99.90;;;;;;5056641;28;20032;-77
2023/11/18 05:53:55;;;;;;;7.43;5.72;;;-1.90;99.90;;;;;;5043062;28;20036;-76
2023/11/18 05:56:24;;;;;;;8.88;6.65;;;-1.90;99.90;;;;;;5047043;28;20039;-76
2023/11/18 05:58:53;;;;;;;6.90;5.45;;;-1.90;99.90;;;;;;5047661;28;20029;-76
2023/11/18 06:01:20;;;;;;;8.55;6.75;;;-1.90;99.90;;;;;;5026503;28;20041;-76
2023/11/18 06:03:46;;;;;;;8.60;6.18;;;-1.90;99.90;;;;;;5053435;28;20040;-76
2023/11/18 06:06:16;;;;;;;7.25;4.47;;;-1.90;99.90;;;;;;5053682;28;20072;-76
2023/11/18 06:08:42;;;;;;;7.18;4.28;;;-2.00;99.90;;;;;;5050560;28;20055;-76
2023/11/18 06:11:15;;;;;;;5.70;4.60;;;-2.00;99.90;;;;;;5053424;28;20041;-77
2023/11/18 06:13:42;;;;;;;6.43;4.72;;;-2.00;99.90;;;;;;5051485;28;20613;-77
2023/11/18 06:16:13;;;;;;;5.95;4.70;;;-2.10;99.90;;;;;;5052149;28;20067;-77
2023/11/18 06:18:46;;;;;;;6.20;4.03;;;-2.00;99.90;;;;;;5056767;28;20502;-78
2023/11/18 06:21:14;;;;;;;6.15;4.50;;;-2.10;99.90;;;;;;5048390;28;20029;-77
2023/11/18 06:23:41;;;;;;;6.18;4.50;;;-2.00;99.90;;;;;;5039612;28;20033;-77
2023/11/18 06:26:10;;;;;;;6.15;4.20;;;-2.00;99.90;;;;;;5053605;28;20108;-77
2023/11/18 06:28:37;;;;;;;6.75;4.90;;;-2.00;99.90;;;;;;5048745;28;20033;-76
2023/11/18 06:31:03;;;;;;;7.75;5.18;;;-2.00;99.90;;;;;;5060143;28;20398;-77
2023/11/18 06:33:28;;;;;;;9.73;5.97;;;-2.00;99.90;;;;;;5048618;28;20029;-78
2023/11/18 06:35:56;;;;;;;7.35;4.85;;;-2.00;99.90;;;;;;5050070;28;20040;-77
2023/11/18 06:38:22;;;;;;;6.03;4.25;;;-2.00;99.90;;;;;;5046817;28;20044;-77
2023/11/18 06:40:52;;;;;;;6.32;4.20;;;-2.10;99.90;;;;;;5049984;28;20556;-77
2023/11/18 06:43:19;;;;;;;7.35;4.80;;;-2.00;99.90;;;;;;5052655;28;20129;-78
2023/11/18 06:45:46;;;;;;;6.97;5.00;;;-2.00;99.90;;;;;;5049264;28;20079;-77
2023/11/18 06:48:14;;;;;;;6.20;4.70;;;-2.00;99.90;;;;;;5056491;28;20064;-78
2023/11/18 06:50:43;;;;;;;6.07;5.05;;;-2.10;99.90;;;;;;5052852;28;20618;-77
2023/11/18 06:53:11;;;;;;;7.15;5.15;;;-2.10;99.90;;;;;;5052446;28;20026;-77
2023/11/18 06:55:37;;;;;;;7.63;5.07;;;-2.00;99.90;;;;;;5054716;28;20043;-76
2023/11/18 06:58:03;;;;;;;10.68;6.03;;;-2.00;99.90;;;;;;5046421;28;20028;-77
2023/11/18 07:00:28;;;;;;;15.52;9.10;;;-2.00;99.90;;;;;;5044154;28;20110;-77
2023/11/18 07:02:55;;;;;;;17.17;10.90;;;-2.00;99.90;;;;;;5048781;28;20037;-77
2023/11/18 07:05:23;;;;;;;19.30;11.45;;;-2.00;99.90;;;;;;5048139;28;20078;-77
2023/11/18 07:07:50;;;;;;;17.38;10.85;;;-1.90;99.90;;;;;;5052824;28;20450;-78
2023/11/18 07:10:20;;;;;;;17.70;9.90;;;-2.00;99.90;;;;;;5052238;28;20390;-77
2023/11/18 07:12:47;;;;;;;14.27;9.43;;;-1.90;99.90;;;;;;5049985;28;20060;-77
2023/11/18 07:15:14;;;;;;;10.65;7.57;;;-1.90;99.90;;;;;;5054867;28;20040;-77
2023/11/18 07:17:40;;;;;;;11.85;6.82;;;-1.90;99.90;;;;;;5050879;28;20106;-77
2023/11/18 07:20:07;;;;;;;8.88;6.55;;;-1.90;99.90;;;;;;5045091;28;20601;-77
2023/11/18 07:22:32;;;;;;;9.65;5.95;;;-1.90;99.90;;;;;;5060420;28;20154;-77
2023/11/18 07:24:58;;;;;;;7.55;5.40;;;-1.80;99.90;;;;;;5051971;28;20112;-77
2023/11/18 07:27:24;;;;;;;7.93;5.53;;;-1.70;99.90;;;;;;5040875;28;20818;-77
2023/11/18 07:30:06;;;;;;;7.72;5.63;;;-1.70;99.90;;;;;;5041800;28;20056;-78
2023/11/18 07:32:33;;;;;;;9.13;6.03;;;-1.70;99.90;;;;;;5044218;28;20044;-77
2023/11/18 07:35:52;;;;;;;8.73;6.22;;;-1.70;99.90;;;;;;5023725;28;20037;-78
2023/11/18 07:38:39;;;;;;;13.82;7.13;;;-1.70;99.90;;;;;;4995658;28;20033;-76
2023/11/18 07:41:08;;;;;;;9.65;6.60;;;-1.60;99.90;;;;;;5046835;28;20743;-77
2023/11/18 07:43:37;;;;;;;11.18;7.88;;;-1.60;99.90;;;;;;5046330;28;20479;-76
2023/11/18 07:46:03;;;;;;;11.80;7.00;;;-1.50;99.90;;;;;;5041760;28;20034;-76
2023/11/18 07:48:31;;;;;;;9.13;5.20;;;-1.50;99.90;;;;;;5036256;28;20021;-78
2023/11/18 07:50:57;;;;;;;6.20;4.70;;;-1.40;99.90;;;;;;5044626;28;20045;-78
2023/11/18 07:53:22;;;;;;;11.35;5.18;;;-1.40;99.90;;;;;;5048190;28;20028;-78
2023/11/18 07:55:49;;;;;;;9.52;5.20;;;-1.30;99.90;;;;;;5044955;28;20085;-78
2023/11/18 07:58:15;;;;;;;8.60;5.30;;;-1.20;99.90;;;;;;5042505;28;20115;-78
2023/11/18 08:00:42;;;;;;;9.88;5.63;;;-1.20;99.90;;;;;;5044276;28;20781;-77
2023/11/18 08:03:11;;;;;;;10.75;6.82;;;-1.20;99.90;;;;;;5048322;28;20110;-77
2023/11/18 08:05:44;;;;;;;12.15;7.97;;;-1.10;99.90;;;;;;5042144;28;20037;-78
2023/11/18 08:08:11;;;;;;;13.95;9.15;;;-1.00;99.90;;;;;;5035378;28;20021;-76
2023/11/18 08:10:38;;;;;;;12.95;8.32;;;-0.90;99.90;;;;;;5042854;28;20032;-77
2023/11/18 08:13:07;;;;;;;11.63;7.68;;;-0.80;99.90;;;;;;5048135;28;20164;-77
2023/11/18 08:15:41;;;;;;;7.63;5.90;;;-0.70;99.90;;;;;;5053262;28;20539;-77
2023/11/18 08:18:10;;;;;;;8.63;6.60;;;-0.60;99.90;;;;;;5034295;28;20021;-76
2023/11/18 08:20:36;;;;;;;10.40;5.65;;;-0.50;99.90;;;;;;5046012;28;20028;-76
2023/11/18 08:23:02;;;;;;;15.70;10.48;;;-0.40;99.90;;;;;;5032167;28;20025;-78
2023/11/18 08:25:28;;;;;;;20.20;14.48;;;-0.30;99.90;;;;;;5041957;28;20056;-78
2023/11/18 08:27:53;;;;;;;18.23;12.82;;;-0.20;99.90;;;;;;5042051;28;20319;-78
2023/11/18 08:30:20;;;;;;;18.45;12.32;;;-0.10;99.90;;;;;;5045430;28;20032;-78
2023/11/18 08:32:47;;;;;;;15.35;11.32;;;0.00;99.90;;;;;;5040015;28;20491;-77
2023/11/18 08:35:14;;;;;;;16.08;11.30;;;0.10;99.90;;;;;;5050022;28;20522;-77
2023/11/18 08:37:43;;;;;;;14.55;11.30;;;0.10;99.90;;;;;;5045200;28;20564;-77
2023/11/18 08:40:14;;;;;;;15.10;11.75;;;0.20;99.90;;;;;;5051604;28;20070;-78
2023/11/18 08:42:49;;;;;;;14.48;9.95;;;0.30;99.90;;;;;;5043188;28;20112;-78
2023/11/18 08:45:20;;;;;;;18.75;13.90;;;0.40;99.90;;;;;;5048703;28;22201;-77
2023/11/18 08:47:46;;;;;;;11.80;8.30;;;0.40;99.90;;;;;;5056977;28;20055;-78
2023/11/18 08:50:16;;;;;;;10.05;7.38;;;0.50;99.90;;;;;;5049140;28;20486;-78
2023/11/18 08:52:47;;;;;;;10.95;6.95;;;0.50;99.90;;;;;;5043275;28;20030;-78
2023/11/18 08:55:17;;;;;;;14.38;9.30;;;0.50;99.90;;;;;;5047808;28;20036;-78
2023/11/18 08:57:59;;;;;;;11.43;7.82;;;0.50;99.90;;;;;;5040742;28;20024;-78
2023/11/18 09:05:57;;;;;;;8.00;5.28;;;0.50;99.90;;;;;;5044391;28;20446;-79
2023/11/18 09:08:29;;;;;;;7.75;5.63;;;0.50;99.90;;;;;;5041875;28;20458;-78
2023/11/18 09:10:56;;;;;;;10.25;6.20;;;0.60;99.90;;;;;;5046182;28;20096;-79
2023/11/18 09:13:28;;;;;;;8.63;6.07;;;0.60;99.90;;;;;;5052583;28;20428;-79
2023/11/18 09:16:00;;;;;;;8.35;5.95;;;0.60;99.90;;;;;;5040734;28;20106;-79
2023/11/18 09:18:32;;;;;;;16.05;9.30;;;0.60;99.90;;;;;;5039291;28;20649;-78
2023/11/18 09:21:05;;;;;;;15.27;9.90;;;0.70;99.90;;;;;;5045841;28;20032;-79
2023/11/18 09:23:34;;;;;;;15.15;8.50;;;0.70;99.90;;;;;;5048668;28;20055;-79
2023/11/18 09:26:02;;;;;;;25.05;16.13;;;0.80;99.90;;;;;;5038966;28;20044;-79
2023/11/18 09:28:30;;;;;;;15.45;8.98;;;0.80;99.90;;;;;;5042089;28;20536;-79
2023/11/18 09:30:57;;;;;;;11.90;7.07;;;0.90;99.90;;;;;;5042741;28;20514;-79
2023/11/18 09:33:25;;;;;;;11.50;7.32;;;1.00;99.90;;;;;;5040735;28;20039;-79
2023/11/18 09:36:01;;;;;;;10.18;6.20;;;1.00;99.90;;;;;;5041307;28;20098;-79
2023/11/18 09:38:30;;;;;;;9.60;6.38;;;1.10;99.90;;;;;;5046852;28;20025;-79
2023/11/18 09:41:07;;;;;;;9.52;6.93;;;1.10;99.90;;;;;;5044130;28;20029;-79
2023/11/18 09:43:38;;;;;;;10.50;6.32;;;1.10;99.90;;;;;;5052729;28;20052;-78
2023/11/18 09:46:13;;;;;;;12.63;7.45;;;1.20;99.90;;;;;;5055179;28;20166;-80
2023/11/18 09:48:47;;;;;;;15.10;10.90;;;1.20;99.90;;;;;;5045282;28;20037;-79
2023/11/18 09:51:23;;;;;;;13.85;7.50;;;1.20;99.90;;;;;;5048975;28;20160;-79
2023/11/18 09:53:53;;;;;;;12.10;8.55;;;1.30;99.90;;;;;;5040822;28;20112;-78
2023/11/18 09:56:34;;;;;;;11.57;6.82;;;1.40;99.90;;;;;;5049789;28;20025;-79
2023/11/18 09:59:09;;;;;;;10.93;7.03;;;1.40;99.90;;;;;;5058278;28;20062;-79
2023/11/18 10:01:39;;;;;;;12.13;6.97;;;1.40;99.90;;;;;;5062006;28;20037;-79
2023/11/18 10:04:06;;;;;;;10.80;7.32;;;1.40;99.90;;;;;;5047642;28;20047;-79
2023/11/18 10:06:35;;;;;;;12.27;7.82;;;1.50;99.90;;;;;;5047236;28;20040;-79
2023/11/18 10:09:15;;;;;;;11.38;7.28;;;1.60;99.90;;;;;;5045109;28;20115;-79
2023/11/18 10:11:42;;;;;;;14.00;8.10;;;1.80;99.90;;;;;;5046063;28;20043;-79
2023/11/18 10:14:08;;;;;;;12.45;6.90;;;1.90;99.90;;;;;;5053713;28;20034;-79
2023/11/18 10:16:34;;;;;;;13.93;8.82;;;2.00;99.90;;;;;;5048341;28;20060;-79
2023/11/18 10:19:08;;;;;;;13.48;8.98;;;2.10;99.90;;;;;;5053890;28;20120;-79
2023/11/18 10:21:39;;;;;;;13.95;8.00;;;2.20;99.90;;;;;;5049456;28;20155;-79
2023/11/18 10:24:14;;;;;;;12.95;7.88;;;2.20;99.90;;;;;;5050316;28;20025;-79
2023/11/18 10:26:55;;;;;;;12.13;7.38;;;2.30;99.90;;;;;;5041271;28;20036;-78
2023/11/18 10:29:21;;;;;;;12.50;6.97;;;2.40;99.90;;;;;;5042299;28;20553;-79
2023/11/18 10:31:47;;;;;;;11.05;7.95;;;2.30;99.90;;;;;;5043637;28;20116;-79
2023/11/18 10:34:17;;;;;;;11.30;6.65;;;2.40;99.90;;;;;;5047782;28;20372;-79
2023/11/18 10:37:02;;;;;;;10.38;6.72;;;2.50;99.90;;;;;;5044441;28;20154;-78
2023/11/18 10:39:32;;;;;;;10.25;6.97;;;2.40;99.90;;;;;;5045052;28;20074;-78
2023/11/18 10:42:02;;;;;;;12.50;7.55;;;2.50;99.90;;;;;;5051438;28;20036;-78
2023/11/18 10:44:29;;;;;;;11.82;7.95;;;2.60;99.90;;;;;;5045684;28;20037;-79
2023/11/18 10:46:58;;;;;;;12.52;8.73;;;2.60;99.90;;;;;;5045053;28;20045;-79
2023/11/18 10:49:28;;;;;;;11.50;7.78;;;2.70;99.90;;;;;;5045402;28;20033;-78
2023/11/18 10:51:56;;;;;;;12.95;8.15;;;2.80;99.90;;;;;;5047241;28;20041;-78
2023/11/18 10:54:22;;;;;;;12.68;8.07;;;2.90;99.90;;;;;;5042644;28;20054;-78
2023/11/18 10:56:56;;;;;;;11.77;7.55;;;3.00;99.90;;;;;;5047237;28;20123;-78
2023/11/18 10:59:22;;;;;;;11.88;7.25;;;3.10;99.90;;;;;;5046277;28;20025;-78
2023/11/18 11:01:48;;;;;;;9.93;7.40;;;3.10;99.90;;;;;;5043891;28;20043;-78
2023/11/18 11:04:20;;;;;;;12.52;8.45;;;3.10;99.90;;;;;;5040647;28;21395;-78
2023/11/18 11:06:53;;;;;;;12.70;8.07;;;3.10;99.90;;;;;;5036293;28;20564;-79
2023/11/18 11:09:24;;;;;;;12.77;8.48;;;3.20;99.90;;;;;;5033000;28;20032;-78
2023/11/18 11:11:56;;;;;;;13.70;8.25;;;3.20;99.90;;;;;;5041443;28;20029;-78
2023/11/18 11:14:24;;;;;;;14.93;8.95;;;3.30;99.90;;;;;;5039075;28;20032;-79
2023/11/18 11:16:55;;;;;;;13.65;8.50;;;3.40;99.90;;;;;;5044755;28;20029;-78
2023/11/18 11:19:44;;;;;;;11.50;8.43;;;3.50;99.90;;;;;;5047020;28;20482;-78
2023/11/18 11:22:41;;;;;;;12.85;9.18;;;3.50;99.90;;;;;;5052682;28;20063;-78
2023/11/18 11:25:26;;;;;;;17.38;8.80;;;3.50;99.90;;;;;;5038012;28;20038;-78
2023/11/18 11:28:13;;;;;;;15.93;8.98;;;3.60;99.90;;;;;;5043086;28;20047;-78
2023/11/18 11:30:50;;;;;;;14.07;8.95;;;3.60;99.90;;;;;;5051891;28;20555;-78
2023/11/18 11:33:29;;;;;;;13.85;8.75;;;3.70;99.90;;;;;;5051182;28;20052;-79
2023/11/18 11:35:59;;;;;;;13.00;8.13;;;3.80;99.90;;;;;;5044306;28;20144;-78
2023/11/18 11:38:28;;;;;;;11.43;8.35;;;3.90;99.90;;;;;;5042425;28;21072;-78
2023/11/18 11:40:55;;;;;;;14.85;8.85;;;4.00;99.90;;;;;;5046429;28;20388;-78
2023/11/18 11:43:21;;;;;;;14.68;8.23;;;4.00;99.90;;;;;;5043431;28;20108;-79
2023/11/18 11:45:54;;;;;;;9.05;7.10;;;4.00;99.90;;;;;;5044798;28;20052;-78
2023/11/18 11:48:26;;;;;;;11.57;7.97;;;4.00;99.90;;;;;;5041652;28;20033;-78
2023/11/18 11:51:20;;;;;;;12.15;8.27;;;4.00;99.90;;;;;;5040065;28;20028;-78
2023/11/18 11:54:15;;;;;;;10.05;7.38;;;4.00;99.90;;;;;;5039948;28;20029;-78
2023/11/18 11:56:47;;;;;;;12.18;7.93;;;3.90;99.90;;;;;;5044205;28;21653;-78
2023/11/18 11:59:16;;;;;;;10.80;7.57;;;4.00;99.90;;;;;;5037593;28;20025;-78
2023/11/18 12:01:46;;;;;;;10.65;7.78;;;4.00;99.90;;;;;;5036878;28;20053;-78
2023/11/18 12:04:21;;;;;;;13.00;8.68;;;4.00;99.90;;;;;;5044147;28;20045;-78
2023/11/18 12:06:48;;;;;;;11.32;7.97;;;4.00;99.90;;;;;;5043234;28;20037;-78
2023/11/18 12:09:19;;;;;;;13.20;8.23;;;4.00;99.90;;;;;;5047115;28;20529;-78
2023/11/18 12:11:48;;;;;;;11.63;7.75;;;4.00;99.90;;;;;;5038641;28;20033;-79
2023/11/18 12:17:10;;;;;;;12.95;7.88;;;4.10;99.90;;;;;;5039852;28;20014;-78
2023/11/18 12:19:50;;;;;;;11.90;7.30;;;4.10;99.90;;;;;;5027993;28;20105;-78
2023/11/18 12:22:26;;;;;;;15.13;8.18;;;4.10;99.90;;;;;;5035127;28;20048;-78
2023/11/18 12:24:58;;;;;;;13.90;9.40;;;4.20;99.90;;;;;;5034647;28;20160;-79
2023/11/18 12:27:51;;;;;;;11.32;8.20;;;4.10;99.90;;;;;;5050334;28;20656;-79
2023/11/18 12:30:23;;;;;;;12.57;8.30;;;4.10;99.90;;;;;;5057858;28;20017;-79
2023/11/18 12:33:05;;;;;;;14.77;8.70;;;4.10;99.90;;;;;;5053118;28;20029;-79
2023/11/18 12:35:59;;;;;;;17.63;10.10;;;4.10;99.90;;;;;;5057294;28;20032;-79
2023/11/18 12:39:00;;;;;;;17.08;10.05;;;4.20;99.90;;;;;;5056528;28;20056;-79
2023/11/18 12:41:41;;;;;;;16.17;10.93;;;4.30;99.90;;;;;;5040694;28;20033;-79
2023/11/18 12:44:32;;;;;;;15.00;9.70;;;4.30;99.90;;;;;;5059414;28;20071;-79
2023/11/18 12:47:14;;;;;;;15.40;10.05;;;4.30;99.90;;;;;;5057927;28;20035;-79
2023/11/18 12:49:44;;;;;;;16.15;10.32;;;4.30;99.90;;;;;;5056543;28;20037;-78
2023/11/18 12:52:14;;;;;;;15.75;9.25;;;4.40;99.90;;;;;;5062755;28;20030;-79
2023/11/18 12:54:43;;;;;;;15.98;10.35;;;4.40;99.90;;;;;;5064418;28;20028;-79
2023/11/18 12:57:13;;;;;;;15.05;10.32;;;4.40;99.90;;;;;;5058403;28;20032;-79
2023/11/18 12:59:40;;;;;;;18.73;10.77;;;4.40;99.90;;;;;;5060103;28;20029;-79
2023/11/18 13:02:23;;;;;;;18.70;11.40;;;4.50;99.90;;;;;;5057435;28;20029;-79
2023/11/18 13:04:49;;;;;;;16.10;10.68;;;4.50;99.90;;;;;;5056904;28;20037;-79
2023/11/18 13:07:20;;;;;;;16.98;10.02;;;4.50;99.90;;;;;;5054475;28;20048;-78